createdAt,value
2022-08-22T00:03:18.293Z,100819.09
2022-08-22T00:04:23.484Z,100823.58
2022-08-22T00:05:27.958Z,100820.44
2022-08-22T00:06:32.478Z,100819.95
2022-08-22T00:07:37.086Z,100821.79
2022-08-22T00:08:41.670Z,100815.66
2022-08-22T00:09:46.374Z,100823.25
2022-08-22T00:10:50.899Z,100825.09
2022-08-22T00:11:55.474Z,100818.35
2022-08-22T00:13:00.114Z,100821.46
2022-08-22T00:14:04.822Z,100821.05
2022-08-22T00:15:42.707Z,100812.96
2022-08-22T00:16:47.948Z,100816.59
2022-08-22T00:17:53.560Z,100813.9
2022-08-22T00:18:58.062Z,100818.88
2022-08-22T00:20:02.869Z,100824.27
2022-08-22T00:21:07.345Z,100815.66
2022-08-22T00:22:11.765Z,100816.06
2022-08-22T00:23:16.195Z,100823.75
2022-08-22T00:24:20.653Z,100823.83
2022-08-22T00:25:26.970Z,100825.18
2022-08-22T00:26:31.391Z,100823.42
2022-08-22T00:27:36.135Z,100826.52
2022-08-22T00:28:48.333Z,100828.89
2022-08-22T00:29:53.461Z,100826.11
2022-08-22T00:30:57.852Z,100829.42
2022-08-22T00:32:05.026Z,100828.08
2022-08-22T00:33:09.398Z,100836.16
2022-08-22T00:34:13.783Z,100833.27
2022-08-22T00:35:18.240Z,100831.59
2022-08-22T00:36:22.642Z,100832.45
2022-08-22T00:37:27.019Z,100836.08
2022-08-22T00:38:31.450Z,100833.19
2022-08-22T00:39:35.869Z,100837.97
2022-08-22T00:40:40.395Z,100832.58
2022-08-22T00:41:44.790Z,100832.49
2022-08-22T00:42:49.255Z,100837.89
2022-08-22T00:43:53.646Z,100831.23
2022-08-22T00:44:58.068Z,100837.89
2022-08-22T00:46:02.464Z,100834.78
2022-08-22T00:47:06.875Z,100834.37
2022-08-22T00:48:15.358Z,100836.63
2022-08-22T00:49:19.760Z,100838.08
2022-08-22T00:50:25.900Z,100842.95
2022-08-22T00:51:30.360Z,100840.34
2022-08-22T00:52:34.801Z,100845.73
2022-08-22T00:53:39.229Z,100839.92
2022-08-22T00:54:43.798Z,100843.15
2022-08-22T00:55:48.177Z,100841.8
2022-08-22T00:56:52.575Z,100841.36
2022-08-22T00:57:57.254Z,100843.15
2022-08-22T00:59:24.232Z,100846.67
2022-08-22T01:00:28.722Z,100844.91
2022-08-22T01:01:38.547Z,100846.75
2022-08-22T01:02:43.105Z,100850.8
2022-08-22T01:03:47.517Z,100845.93
2022-08-22T01:04:51.938Z,100847.36
2022-08-22T01:05:56.411Z,100847.69
2022-08-22T01:07:00.803Z,100850.91
2022-08-22T01:08:05.195Z,100852.26
2022-08-22T01:09:09.613Z,100856.8
2022-08-22T01:10:14.023Z,100856.8
2022-08-22T01:11:18.649Z,100851.93
2022-08-22T01:12:23.061Z,100851.93
2022-08-22T01:13:27.478Z,100866.84
2022-08-22T01:14:36.133Z,100857.41
2022-08-22T01:15:40.565Z,100858.75
2022-08-22T01:16:45.006Z,100862.8
2022-08-22T01:17:49.655Z,100862.39
2022-08-22T01:18:54.174Z,100863.54
2022-08-22T01:19:58.787Z,100861.78
2022-08-22T01:21:03.364Z,100860.02
2022-08-22T01:22:07.871Z,100860.34
2022-08-22T01:23:12.341Z,100859.73
2022-08-22T01:24:18.457Z,100864.61
2022-08-22T01:25:27.197Z,100858.3
2022-08-22T01:26:32.883Z,100868.23
2022-08-22T01:27:37.559Z,100865.62
2022-08-22T01:28:43.908Z,100870.44
2022-08-22T01:29:49.460Z,100875.39
2022-08-22T01:30:53.903Z,100870.94
2022-08-22T01:31:58.350Z,100866.48
2022-08-22T01:33:02.794Z,100869.26
2022-08-22T01:34:13.916Z,100878.2
2022-08-22T01:35:18.359Z,100872.48
2022-08-22T01:36:23.067Z,100883.68
2022-08-22T01:37:28.545Z,100872.04
2022-08-22T01:38:32.973Z,100878.28
2022-08-22T01:39:37.434Z,100875.39
2022-08-22T01:40:54.759Z,100881.64
2022-08-22T01:41:59.623Z,100874.37
2022-08-22T01:43:04.027Z,100871.88
2022-08-22T01:44:08.367Z,100873.96
2022-08-22T01:45:12.710Z,100873.55
2022-08-22T01:46:25.908Z,100873.14
2022-08-22T01:47:37.855Z,100869.5
2022-08-22T01:48:42.265Z,100871.8
2022-08-22T01:49:48.738Z,100874.16
2022-08-22T01:50:53.106Z,100869.59
2022-08-22T01:51:57.482Z,100871.88
2022-08-22T01:53:01.846Z,100872.7
2022-08-22T01:54:06.176Z,100867.3
2022-08-22T01:55:10.543Z,100870.77
2022-08-22T01:56:14.910Z,100864.44
2022-08-22T01:57:19.277Z,100874.81
2022-08-22T01:58:23.619Z,100867.63
2022-08-22T01:59:34.693Z,100870.77
2022-08-22T02:00:46.516Z,100872.53
2022-08-22T02:01:50.942Z,100871.09
2022-08-22T02:02:55.267Z,100873.1
2022-08-22T02:03:59.663Z,100865.92
2022-08-22T02:05:04.045Z,100868.53
2022-08-22T02:06:08.392Z,100871.56
2022-08-22T02:07:18.714Z,100868.78
2022-08-22T02:08:23.038Z,100870.13
2022-08-22T02:09:27.419Z,100871.47
2022-08-22T02:10:31.765Z,100870.13
2022-08-22T02:11:36.191Z,100868.36
2022-08-22T02:12:40.517Z,100871.06
2022-08-22T02:13:44.875Z,100870.13
2022-08-22T02:14:49.244Z,100870.62
2022-08-22T02:15:53.603Z,100873.84
2022-08-22T02:16:57.959Z,100871.14
2022-08-22T02:18:02.343Z,100871.56
2022-08-22T02:19:06.663Z,100874.25
2022-08-22T02:20:12.454Z,100877.03
2022-08-22T02:21:16.804Z,100874.86
2022-08-22T02:22:21.135Z,100875.8
2022-08-22T02:23:25.461Z,100874.86
2022-08-22T02:24:29.794Z,100872.77
2022-08-22T02:25:34.143Z,100868.2
2022-08-22T02:26:38.481Z,100868.73
2022-08-22T02:27:42.834Z,100876.49
2022-08-22T02:28:58.114Z,100870.98
2022-08-22T02:30:02.469Z,100868.73
2022-08-22T02:31:08.368Z,100874.62
2022-08-22T02:32:12.737Z,100865.27
2022-08-22T02:33:17.147Z,100871.92
2022-08-22T02:34:21.512Z,100866.61
2022-08-22T02:35:25.874Z,100872
2022-08-22T02:36:30.238Z,100871.84
2022-08-22T02:37:34.617Z,100867.87
2022-08-22T02:38:39.003Z,100875.55
2022-08-22T02:39:43.495Z,100870.85
2022-08-22T02:40:47.938Z,100874.57
2022-08-22T02:41:52.330Z,100870.61
2022-08-22T02:42:56.784Z,100866.44
2022-08-22T02:44:01.184Z,100866.92
2022-08-22T02:45:05.598Z,100869.21
2022-08-22T02:46:09.999Z,100871.05
2022-08-22T02:47:15.892Z,100866.59
2022-08-22T02:48:20.993Z,100870.64
2022-08-22T02:49:32.247Z,100863.58
2022-08-22T02:50:47.145Z,100868.14
2022-08-22T02:51:51.556Z,100869.58
2022-08-22T02:52:55.914Z,100872.69
2022-08-22T02:54:00.298Z,100867.2
2022-08-22T02:55:04.661Z,100871.66
2022-08-22T02:56:09.010Z,100869.98
2022-08-22T02:57:15.758Z,100872.19
2022-08-22T02:58:20.770Z,100869.98
2022-08-22T02:59:25.150Z,100869.66
2022-08-22T03:00:34.097Z,100871.53
2022-08-22T03:01:42.015Z,100867.57
2022-08-22T03:02:46.388Z,100863.44
2022-08-22T03:03:50.914Z,100865.28
2022-08-22T03:04:55.340Z,100857.72
2022-08-22T03:06:02.686Z,100858.22
2022-08-22T03:07:07.027Z,100860.01
2022-08-22T03:08:13.952Z,100853.67
2022-08-22T03:09:18.278Z,100856.87
2022-08-22T03:10:25.196Z,100854.7
2022-08-22T03:11:29.555Z,100856.98
2022-08-22T03:12:33.927Z,100859.16
2022-08-22T03:13:38.308Z,100853.67
2022-08-22T03:14:42.668Z,100854.28
2022-08-22T03:15:50.456Z,100851.14
2022-08-22T03:16:54.822Z,100852.61
2022-08-22T03:17:59.610Z,100853.63
2022-08-22T03:19:04.390Z,100853.19
2022-08-22T03:20:09.162Z,100851.84
2022-08-22T03:21:13.566Z,100850.69
2022-08-22T03:22:17.976Z,100851.19
2022-08-22T03:23:22.387Z,100852.2
2022-08-22T03:24:26.751Z,100849.09
2022-08-22T03:25:31.201Z,100847.14
2022-08-22T03:26:35.532Z,100843.86
2022-08-22T03:27:40.038Z,100846.56
2022-08-22T03:29:00.892Z,100841.58
2022-08-22T03:30:05.273Z,100846.45
2022-08-22T03:31:12.518Z,100847.8
2022-08-22T03:32:16.963Z,100844
2022-08-22T03:33:21.334Z,100840.56
2022-08-22T03:34:25.734Z,100848.56
2022-08-22T03:35:30.100Z,100841.98
2022-08-22T03:36:34.488Z,100839.91
2022-08-22T03:37:38.857Z,100844.77
2022-08-22T03:38:43.262Z,100841.75
2022-08-22T03:39:47.831Z,100838.23
2022-08-22T03:40:52.360Z,100832.92
2022-08-22T03:41:56.772Z,100839.16
2022-08-22T03:43:01.235Z,100842.69
2022-08-22T03:44:05.645Z,100841.42
2022-08-22T03:45:10.052Z,100841.42
2022-08-22T03:46:18.782Z,100843.2
2022-08-22T03:47:23.155Z,100844.23
2022-08-22T03:48:31.445Z,100842.96
2022-08-22T03:49:35.871Z,100850.36
2022-08-22T03:50:40.277Z,100859.59
2022-08-22T03:51:44.722Z,100856.73
2022-08-22T03:52:49.158Z,100865.07
2022-08-22T03:53:53.538Z,100869.66
2022-08-22T03:54:57.905Z,100863.85
2022-08-22T03:56:02.303Z,100868.75
2022-08-22T03:57:06.686Z,100867.81
2022-08-22T03:58:28.564Z,100869.08
2022-08-22T03:59:32.918Z,100872.52
2022-08-22T04:00:38.703Z,100868.88
2022-08-22T04:01:43.137Z,100872.23
2022-08-22T04:02:47.503Z,100871.22
2022-08-22T04:03:54.434Z,100878.2
2022-08-22T04:04:58.807Z,100876.94
2022-08-22T04:06:03.749Z,100872.7
2022-08-22T04:07:33.304Z,100872.7
2022-08-22T04:08:44.953Z,100872.61
2022-08-22T04:09:49.629Z,100875.84
2022-08-22T04:10:55.490Z,100877.07
2022-08-22T04:11:59.894Z,100871.27
2022-08-22T04:13:04.265Z,100877.59
2022-08-22T04:14:08.627Z,100875.39
2022-08-22T04:15:13.096Z,100873.02
2022-08-22T04:16:17.469Z,100876.16
2022-08-22T04:17:21.812Z,100878.82
2022-08-22T04:18:26.149Z,100876.07
2022-08-22T04:19:30.568Z,100878.59
2022-08-22T04:20:34.936Z,100878.86
2022-08-22T04:21:39.373Z,100880.69
2022-08-22T04:22:43.782Z,100874.44
2022-08-22T04:23:48.159Z,100874.3
2022-08-22T04:24:53.550Z,100886.27
2022-08-22T04:25:58.647Z,100882.42
2022-08-22T04:27:11.665Z,100882.91
2022-08-22T04:28:16.038Z,100881.16
2022-08-22T04:29:20.457Z,100876.92
2022-08-22T04:30:24.865Z,100873.7
2022-08-22T04:31:29.216Z,100877.7
2022-08-22T04:32:33.594Z,100884.13
2022-08-22T04:33:37.993Z,100884.07
2022-08-22T04:34:42.412Z,100879.31
2022-08-22T04:35:46.823Z,100876.75
2022-08-22T04:36:51.172Z,100882.23
2022-08-22T04:37:55.626Z,100881.34
2022-08-22T04:39:00.182Z,100877.14
2022-08-22T04:40:04.707Z,100884.61
2022-08-22T04:41:09.300Z,100886.41
2022-08-22T04:42:33.567Z,100886.3
2022-08-22T04:43:38.065Z,100885.11
2022-08-22T04:44:42.416Z,100891.93
2022-08-22T04:45:46.841Z,100887.75
2022-08-22T04:46:51.204Z,100886.3
2022-08-22T04:47:55.659Z,100884.97
2022-08-22T04:49:00.138Z,100884.67
2022-08-22T04:50:06.514Z,100881.26
2022-08-22T04:51:10.867Z,100891.08
2022-08-22T04:52:15.412Z,100882.47
2022-08-22T04:53:19.794Z,100882.94
2022-08-22T04:54:24.148Z,100886.84
2022-08-22T04:55:28.512Z,100887.66
2022-08-22T04:56:32.864Z,100885.75
2022-08-22T04:57:37.245Z,100883.63
2022-08-22T04:58:41.656Z,100890.96
2022-08-22T04:59:47.388Z,100889.61
2022-08-22T05:00:54.501Z,100886.45
2022-08-22T05:01:59.051Z,100892.23
2022-08-22T05:03:03.595Z,100894.1
2022-08-22T05:04:08.010Z,100891.56
2022-08-22T05:05:14.796Z,100891.16
2022-08-22T05:06:19.255Z,100890.63
2022-08-22T05:07:25.546Z,100892.31
2022-08-22T05:08:29.946Z,100892.86
2022-08-22T05:09:34.287Z,100892.91
2022-08-22T05:10:38.684Z,100895.53
2022-08-22T05:11:43.070Z,100895.88
2022-08-22T05:12:47.413Z,100897.91
2022-08-22T05:13:51.772Z,100898.33
2022-08-22T05:14:56.125Z,100894.45
2022-08-22T05:16:00.551Z,100891.43
2022-08-22T05:17:05.859Z,100897.17
2022-08-22T05:18:10.221Z,100893.12
2022-08-22T05:19:21.420Z,100893.55
2022-08-22T05:20:35.097Z,100897.23
2022-08-22T05:21:39.508Z,100898.66
2022-08-22T05:22:43.865Z,100895.12
2022-08-22T05:23:48.250Z,100898.52
2022-08-22T05:24:52.601Z,100892.57
2022-08-22T05:25:56.955Z,100897.22
2022-08-22T05:27:01.344Z,100899.53
2022-08-22T05:28:05.744Z,100900.58
2022-08-22T05:29:10.122Z,100908.13
2022-08-22T05:30:14.461Z,100902.72
2022-08-22T05:31:24.398Z,100903.25
2022-08-22T05:32:28.793Z,100901.78
2022-08-22T05:33:33.170Z,100905.36
2022-08-22T05:34:37.540Z,100907.42
2022-08-22T05:35:43.955Z,100905.11
2022-08-22T05:36:54.131Z,100911.84
2022-08-22T05:37:59.027Z,100900.73
2022-08-22T05:39:03.642Z,100913.84
2022-08-22T05:40:08.118Z,100914.38
2022-08-22T05:41:12.650Z,100912.67
2022-08-22T05:42:17.029Z,100918.3
2022-08-22T05:43:21.394Z,100914.43
2022-08-22T05:44:25.827Z,100916.21
2022-08-22T05:45:30.205Z,100919.98
2022-08-22T05:46:34.674Z,100917.14
2022-08-22T05:47:39.016Z,100921.87
2022-08-22T05:48:44.641Z,100921.45
2022-08-22T05:49:49.040Z,100921.44
2022-08-22T05:50:54.097Z,100916.88
2022-08-22T05:51:58.531Z,100912.17
2022-08-22T05:53:03.065Z,100917.87
2022-08-22T05:54:07.468Z,100915.11
2022-08-22T05:55:11.866Z,100914.7
2022-08-22T05:56:16.343Z,100915.37
2022-08-22T05:57:20.746Z,100919.08
2022-08-22T05:58:25.113Z,100916.46
2022-08-22T05:59:29.530Z,100911.23
2022-08-22T06:00:33.961Z,100922.2
2022-08-22T06:01:38.505Z,100909.55
2022-08-22T06:02:42.947Z,100928
2022-08-22T06:03:48.773Z,100915.88
2022-08-22T06:04:53.145Z,100923.78
2022-08-22T06:05:57.690Z,100925.2
2022-08-22T06:07:02.087Z,100924.47
2022-08-22T06:08:06.526Z,100923.67
2022-08-22T06:09:10.914Z,100921.66
2022-08-22T06:10:15.297Z,100927.86
2022-08-22T06:11:23.333Z,100931.63
2022-08-22T06:12:29.055Z,100934.41
2022-08-22T06:13:33.696Z,100932.12
2022-08-22T06:14:40.785Z,100935.34
2022-08-22T06:15:48.517Z,100935.67
2022-08-22T06:16:52.921Z,100934.32
2022-08-22T06:17:58.922Z,100928.41
2022-08-22T06:19:03.778Z,100923.88
2022-08-22T06:20:23.715Z,100931.03
2022-08-22T06:21:29.810Z,100931.38
2022-08-22T06:22:43.034Z,100924.09
2022-08-22T06:23:47.434Z,100924.5
2022-08-22T06:24:51.832Z,100918.45
2022-08-22T06:25:56.189Z,100928.37
2022-08-22T06:27:00.566Z,100927.3
2022-08-22T06:28:04.903Z,100922.43
2022-08-22T06:29:09.362Z,100923.84
2022-08-22T06:30:13.731Z,100923.84
2022-08-22T06:31:18.147Z,100926.01
2022-08-22T06:33:00.501Z,100930.92
2022-08-22T06:34:05.419Z,100928.04
2022-08-22T06:35:09.829Z,100933.27
2022-08-22T06:36:16.477Z,100929.22
2022-08-22T06:37:24.894Z,100925.52
2022-08-22T06:38:29.330Z,100925.19
2022-08-22T06:39:33.744Z,100927.47
2022-08-22T06:40:38.135Z,100928.72
2022-08-22T06:41:42.485Z,100929.59
2022-08-22T06:42:46.837Z,100934.3
2022-08-22T06:43:51.182Z,100935.05
2022-08-22T06:44:55.531Z,100935.12
2022-08-22T06:46:00.040Z,100933.61
2022-08-22T06:47:04.419Z,100934.55
2022-08-22T06:48:08.927Z,100931.86
2022-08-22T06:49:13.285Z,100933.7
2022-08-22T06:50:17.683Z,100939
2022-08-22T06:51:25.093Z,100937.15
2022-08-22T06:52:31.275Z,100937.67
2022-08-22T06:53:35.669Z,100938.63
2022-08-22T06:54:42.941Z,100936.86
2022-08-22T06:55:47.322Z,100943.33
2022-08-22T06:56:51.670Z,100944.81
2022-08-22T06:57:56.118Z,100942.37
2022-08-22T06:59:00.534Z,100937.67
2022-08-22T07:00:04.953Z,100942.8
2022-08-22T07:01:12.868Z,100942.39
2022-08-22T07:02:17.397Z,100947.45
2022-08-22T07:03:22.898Z,100942.74
2022-08-22T07:04:27.282Z,100944.77
2022-08-22T07:05:31.686Z,100937.02
2022-08-22T07:06:36.558Z,100942.16
2022-08-22T07:07:40.908Z,100941.2
2022-08-22T07:08:45.277Z,100941.81
2022-08-22T07:09:49.654Z,100943.73
2022-08-22T07:10:54.046Z,100943.27
2022-08-22T07:11:58.412Z,100941.59
2022-08-22T07:13:02.770Z,100941.39
2022-08-22T07:14:07.133Z,100943.42
2022-08-22T07:15:11.485Z,100943.59
2022-08-22T07:16:15.876Z,100936.67
2022-08-22T07:17:20.510Z,100943.82
2022-08-22T07:18:24.980Z,100940.3
2022-08-22T07:19:29.335Z,100945.02
2022-08-22T07:20:33.725Z,100943.16
2022-08-22T07:21:38.138Z,100944.42
2022-08-22T07:22:43.898Z,100941.81
2022-08-22T07:23:48.249Z,100946.7
2022-08-22T07:24:55.496Z,100946.7
2022-08-22T07:25:59.854Z,100946.02
2022-08-22T07:27:06.424Z,100947.11
2022-08-22T07:28:17.168Z,100945.02
2022-08-22T07:29:24.098Z,100948.89
2022-08-22T07:30:29.619Z,100939.05
2022-08-22T07:31:34.171Z,100946.97
2022-08-22T07:32:38.658Z,100941.81
2022-08-22T07:33:43.004Z,100947.52
2022-08-22T07:34:47.371Z,100945.52
2022-08-22T07:35:54.743Z,100945.91
2022-08-22T07:36:59.111Z,100948.48
2022-08-22T07:38:05.628Z,100949.74
2022-08-22T07:39:12.125Z,100958.42
2022-08-22T07:40:16.909Z,100949.66
2022-08-22T07:41:21.335Z,100948.06
2022-08-22T07:42:30.724Z,100956.14
2022-08-22T07:43:35.144Z,100954.38
2022-08-22T07:44:39.491Z,100951.56
2022-08-22T07:45:43.836Z,100950.16
2022-08-22T07:46:48.206Z,100945.18
2022-08-22T07:47:52.526Z,100951.5
2022-08-22T07:49:10.322Z,100946.3
2022-08-22T07:50:14.743Z,100947.12
2022-08-22T07:51:19.152Z,100949.14
2022-08-22T07:52:23.594Z,100950.48
2022-08-22T07:53:27.968Z,100951.75
2022-08-22T07:54:32.334Z,100952.42
2022-08-22T07:55:50.757Z,100951.48
2022-08-22T07:56:55.129Z,100944.95
2022-08-22T07:58:00.348Z,100946.73
2022-08-22T07:59:13.791Z,100945.47
2022-08-22T08:00:18.156Z,100945.37
2022-08-22T08:01:22.738Z,100945.12
2022-08-22T08:02:27.270Z,100944.03
2022-08-22T08:03:31.628Z,100954.46
2022-08-22T08:04:41.175Z,100948.39
2022-08-22T08:05:45.516Z,100948.66
2022-08-22T08:06:49.885Z,100951.83
2022-08-22T08:07:54.325Z,100945.53
2022-08-22T08:08:58.716Z,100952.12
2022-08-22T08:10:03.302Z,100952.59
2022-08-22T08:11:07.657Z,100950.69
2022-08-22T08:12:11.991Z,100953.95
2022-08-22T08:13:16.372Z,100944.53
2022-08-22T08:14:20.702Z,100950.18
2022-08-22T08:15:25.051Z,100956.31
2022-08-22T08:16:34.964Z,100952.63
2022-08-22T08:17:39.313Z,100951.61
2022-08-22T08:18:45.783Z,100956.98
2022-08-22T08:19:50.144Z,100951.86
2022-08-22T08:20:57.722Z,100962.97
2022-08-22T08:22:02.076Z,100958.33
2022-08-22T08:23:06.492Z,100953.62
2022-08-22T08:24:10.972Z,100961.36
2022-08-22T08:25:15.799Z,100960.46
2022-08-22T08:26:20.212Z,100964.56
2022-08-22T08:27:24.707Z,100962.69
2022-08-22T08:28:29.110Z,100966.72
2022-08-22T08:29:33.477Z,100965.91
2022-08-22T08:30:37.838Z,100964.38
2022-08-22T08:31:45.971Z,100968.09
2022-08-22T08:32:50.368Z,100965.73
2022-08-22T08:34:27.546Z,100973.66
2022-08-22T08:36:02.163Z,100972.58
2022-08-22T08:37:07.885Z,100971.64
2022-08-22T08:38:16.013Z,100975
2022-08-22T08:39:20.392Z,100967
2022-08-22T08:40:24.932Z,100965.24
2022-08-22T08:41:29.410Z,100967.6
2022-08-22T08:42:33.785Z,100967.41
2022-08-22T08:43:38.137Z,100964.83
2022-08-22T08:44:42.497Z,100967.59
2022-08-22T08:45:46.862Z,100962.13
2022-08-22T08:46:56.671Z,100975.26
2022-08-22T08:48:01.555Z,100967.52
2022-08-22T08:49:07.717Z,100966.73
2022-08-22T08:50:13.715Z,100964.39
2022-08-22T08:51:18.656Z,100962.22
2022-08-22T08:52:26.934Z,100967.75
2022-08-22T08:53:32.360Z,100959.34
2022-08-22T08:54:37.295Z,100959.86
2022-08-22T08:55:44.773Z,100949.25
2022-08-22T08:56:55.445Z,100952.94
2022-08-22T08:58:07.745Z,100950.42
2022-08-22T08:59:15.653Z,100948.33
2022-08-22T09:00:20.078Z,100945.47
2022-08-22T09:01:29.576Z,100950.25
2022-08-22T09:02:42.409Z,100952.38
2022-08-22T09:03:46.876Z,100954.97
2022-08-22T09:04:54.711Z,100951.8
2022-08-22T09:05:59.072Z,100953.28
2022-08-22T09:07:05.300Z,100949.92
2022-08-22T09:08:12.946Z,100951.26
2022-08-22T09:09:17.577Z,100951.78
2022-08-22T09:10:22.008Z,100955.56
2022-08-22T09:11:30.762Z,100956.5
2022-08-22T09:12:35.130Z,100952.95
2022-08-22T09:13:42.078Z,100949.25
2022-08-22T09:14:47.814Z,100945.31
2022-08-22T09:16:05.682Z,100950.59
2022-08-22T09:17:13.270Z,100945.05
2022-08-22T10:01:03.166Z,100943.38
2022-08-22T10:02:16.614Z,100940.02
2022-08-22T10:03:22.039Z,100944.3
2022-08-22T10:04:26.401Z,100946.33
2022-08-22T10:05:44.991Z,100945.22
2022-08-22T10:06:50.278Z,100941.28
2022-08-22T10:07:54.633Z,100950.12
2022-08-22T10:08:59.496Z,100944.25
2022-08-22T10:10:03.867Z,100943.8
2022-08-22T10:11:09.312Z,100949.45
2022-08-22T10:12:14.343Z,100940.3
2022-08-22T10:13:20.154Z,100939.78
2022-08-22T10:14:26.136Z,100943.67
2022-08-22T10:15:30.487Z,100940.65
2022-08-22T10:16:35.643Z,100946.11
2022-08-22T10:17:42.373Z,100945.28
2022-08-22T10:18:57.020Z,100941.89
2022-08-22T10:20:10.799Z,100939.7
2022-08-22T10:21:16.620Z,100940.55
2022-08-22T10:22:21.292Z,100939.7
2022-08-22T10:23:25.961Z,100938.55
2022-08-22T10:24:31.961Z,100940.64
2022-08-22T10:25:47.521Z,100941.66
2022-08-22T10:26:52.310Z,100939.05
2022-08-22T10:27:56.711Z,100940.89
2022-08-22T10:29:01.097Z,100935.59
2022-08-22T10:30:05.714Z,100934.5
2022-08-22T10:31:11.450Z,100934.66
2022-08-22T10:32:17.721Z,100941.16
2022-08-22T10:33:32.030Z,100940.16
2022-08-22T10:34:36.387Z,100939.72
2022-08-22T10:35:43.314Z,100939.89
2022-08-22T10:36:48.646Z,100942.16
2022-08-22T10:37:54.318Z,100943.24
2022-08-22T10:38:59.986Z,100943.41
2022-08-22T10:40:12.926Z,100955.37
2022-08-22T10:41:18.338Z,100944.75
2022-08-22T10:42:31.212Z,100947.98
2022-08-22T10:43:41.889Z,100948.73
2022-08-22T10:44:46.516Z,100946.89
2022-08-22T10:45:53.310Z,100950.41
2022-08-22T10:46:58.240Z,100952.68
2022-08-22T10:48:02.625Z,100948.31
2022-08-22T10:49:18.022Z,100945.54
2022-08-22T10:50:32.016Z,100950.14
2022-08-22T10:51:37.728Z,100947.3
2022-08-22T10:52:43.499Z,100951.07
2022-08-22T10:53:51.292Z,100950.06
2022-08-22T10:54:55.701Z,100948.45
2022-08-22T10:56:00.074Z,100948.22
2022-08-22T10:57:07.779Z,100947.95
2022-08-22T10:58:12.862Z,100947.12
2022-08-22T10:59:18.668Z,100947.28
2022-08-22T11:00:27.244Z,100947.7
2022-08-22T11:01:41.896Z,100949.05
2022-08-22T11:02:46.817Z,100950.14
2022-08-22T11:03:56.664Z,100946.95
2022-08-22T11:05:01.030Z,100950.54
2022-08-22T11:06:06.006Z,100943.48
2022-08-22T11:07:13.617Z,100950.31
2022-08-22T11:08:18.740Z,100948.78
2022-08-22T11:09:23.110Z,100947.1
2022-08-22T11:10:27.503Z,100939.22
2022-08-22T11:11:33.909Z,100945.42
2022-08-22T11:12:42.739Z,100944.93
2022-08-22T11:13:50.719Z,100948.52
2022-08-22T11:14:55.083Z,100941.05
2022-08-22T11:16:01.162Z,100945.75
2022-08-22T11:17:31.846Z,100946.69
2022-08-22T11:19:14.783Z,100948.39
2022-08-22T11:20:21.309Z,100944.94
2022-08-22T11:21:29.769Z,100945.84
2022-08-22T11:22:34.260Z,100947.03
2022-08-22T11:23:39.455Z,100947.62
2022-08-22T11:24:59.368Z,100951.22
2022-08-22T11:26:08.525Z,100948.97
2022-08-22T11:27:20.922Z,100946.36
2022-08-22T11:28:41.868Z,100950.65
2022-08-22T11:29:48.311Z,100944.83
2022-08-22T11:30:55.438Z,100951.81
2022-08-22T11:32:07.800Z,100951.74
2022-08-22T11:33:14.776Z,100955.11
2022-08-22T11:34:21.648Z,100956.8
2022-08-22T11:35:28.916Z,100954.7
2022-08-22T11:36:34.224Z,100951.56
2022-08-22T11:37:44.267Z,100947.71
2022-08-22T11:38:51.080Z,100951.16
2022-08-22T11:39:55.560Z,100948.11
2022-08-22T11:41:01.072Z,100947.79
2022-08-22T11:42:07.441Z,100945.08
2022-08-22T11:43:19.124Z,100947.03
2022-08-22T11:44:26.685Z,100952.91
2022-08-22T11:45:32.177Z,100942.66
2022-08-22T11:46:37.068Z,100953.69
2022-08-22T11:47:43.319Z,100951
2022-08-22T11:48:49.730Z,100948.71
2022-08-22T11:49:54.165Z,100955.03
2022-08-22T11:50:58.549Z,100958.13
2022-08-22T11:52:02.945Z,100960.16
2022-08-22T11:53:08.922Z,100961.84
2022-08-22T11:54:13.486Z,100959.56
2022-08-22T11:55:18.716Z,100964.45
2022-08-22T11:56:25.344Z,100960.41
2022-08-22T11:57:30.207Z,100972
2022-08-22T11:58:34.631Z,100964.47
2022-08-22T11:59:43.979Z,100965.21
2022-08-22T12:00:48.375Z,100966.82
2022-08-22T12:01:53.042Z,100970.18
2022-08-22T12:02:57.545Z,100967.64
2022-08-22T12:04:04.467Z,100967.81
2022-08-22T12:05:24.309Z,100969.59
2022-08-22T12:06:30.826Z,100965.67
2022-08-22T12:07:40.613Z,100964.77
2022-08-22T12:08:44.959Z,100967.72
2022-08-22T12:09:50.037Z,100971.94
2022-08-22T12:10:55.496Z,100968.31
2022-08-22T12:12:05.566Z,100966.02
2022-08-22T12:13:09.913Z,100957.21
2022-08-22T12:14:15.015Z,100960.57
2022-08-22T12:15:19.509Z,100960.98
2022-08-22T12:16:25.853Z,100957.05
2022-08-22T12:18:01.395Z,100957.12
2022-08-22T12:19:07.930Z,100957.39
2022-08-22T12:20:19.859Z,100953.51
2022-08-22T12:21:25.165Z,100962.93
2022-08-22T12:22:30.009Z,100960.84
2022-08-22T12:23:50.226Z,100957.12
2022-08-22T12:24:55.782Z,100959.41
2022-08-22T12:26:12.063Z,100957.73
2022-08-22T12:27:28.027Z,100958.87
2022-08-22T12:28:33.658Z,100958.63
2022-08-22T12:29:45.560Z,100961.25
2022-08-22T12:30:55.709Z,100958.95
2022-08-22T12:32:00.076Z,100962.84
2022-08-22T12:33:06.646Z,100964.45
2022-08-22T12:34:16.676Z,100965.27
2022-08-22T12:35:30.841Z,100962.44
2022-08-22T12:36:35.211Z,100954.28
2022-08-22T12:37:54.126Z,100960
2022-08-22T12:38:59.149Z,100961.16
2022-08-22T12:40:04.243Z,100957.11
2022-08-22T12:41:09.443Z,100954.78
2022-08-22T12:42:13.821Z,100953.7
2022-08-22T12:43:19.859Z,100950.22
2022-08-22T12:44:26.621Z,100944.77
2022-08-22T12:45:30.990Z,100940.81
2022-08-22T12:46:35.748Z,100943.4
2022-08-22T12:47:50.107Z,100942.67
2022-08-22T12:48:54.872Z,100939.03
2022-08-22T12:49:59.241Z,100937.6
2022-08-22T12:51:03.592Z,100936.25
2022-08-22T12:52:22.534Z,100938.7
2022-08-22T12:53:29.382Z,100932.63
2022-08-22T12:54:34.913Z,100936.75
2022-08-22T12:55:39.725Z,100936.52
2022-08-22T12:56:48.605Z,100929.38
2022-08-22T12:57:55.281Z,100935.78
2022-08-22T12:59:01.324Z,100934.52
2022-08-22T13:00:08.089Z,100939.03
2022-08-22T13:01:16.468Z,100934.92
2022-08-22T13:02:23.377Z,100932.56
2022-08-22T13:03:30.665Z,100936.28
2022-08-22T13:04:36.067Z,100936.88
2022-08-22T13:05:41.744Z,100936.62
2022-08-22T13:06:51.087Z,100938.14
2022-08-22T13:08:00.240Z,100935.11
2022-08-22T13:09:11.130Z,100937.2
2022-08-22T13:10:18.392Z,100934.51
2022-08-22T13:11:24.286Z,100933.43
2022-08-22T13:12:32.154Z,100935.25
2022-08-22T13:13:39.696Z,100923.55
2022-08-22T13:14:44.047Z,100934.05
2022-08-22T13:15:54.743Z,100928.6
2022-08-22T13:16:59.098Z,100930.89
2022-08-22T13:18:31.812Z,100933.5
2022-08-22T13:19:39.163Z,100929.05
2022-08-22T13:20:44.439Z,100925.92
2022-08-22T13:21:49.875Z,100926.84
2022-08-22T13:22:56.532Z,100920.86
2022-08-22T13:24:05.287Z,100922.81
2022-08-22T13:25:15.204Z,100920.59